createdAt,value
2023-02-06T00:03:22.196Z,4.23
2023-02-06T00:08:23.839Z,4.26
2023-02-06T00:13:25.144Z,4.31
2023-02-06T00:18:26.521Z,4.26
2023-02-06T00:23:27.839Z,4.26
2023-02-06T00:28:29.145Z,4.30
2023-02-06T00:33:30.467Z,4.24
2023-02-06T00:38:31.854Z,4.18
2023-02-06T00:43:33.237Z,4.23
2023-02-06T00:48:34.619Z,4.20
2023-02-06T00:53:36.025Z,4.09
2023-02-06T00:58:37.424Z,4.10
2023-02-06T01:03:38.824Z,4.06
2023-02-06T01:08:40.144Z,3.99
2023-02-06T01:13:41.802Z,3.94
2023-02-06T01:18:43.249Z,3.81
2023-02-06T01:23:44.717Z,3.68
2023-02-06T01:28:46.834Z,3.63
2023-02-06T01:46:01.437Z,3.54
2023-02-06T01:51:04.306Z,3.47
2023-02-06T01:56:06.627Z,3.18
2023-02-06T02:01:08.846Z,2.84
2023-02-06T02:06:11.889Z,2.54
2023-02-06T02:11:16.331Z,2.35
2023-02-06T02:16:17.660Z,2.20
2023-02-06T02:21:28.023Z,2.04
2023-02-06T02:26:45.078Z,2.02
2023-02-06T02:31:49.497Z,1.91
2023-02-06T02:36:52.574Z,1.83
2023-02-06T02:41:59.840Z,1.73
2023-02-06T02:47:03.959Z,1.71
2023-02-06T02:52:05.454Z,1.71
2023-02-06T02:57:09.631Z,1.74
2023-02-06T03:02:29.990Z,1.65
2023-02-06T03:07:37.193Z,1.60
2023-02-06T03:12:41.812Z,1.47
2023-02-06T03:18:00.787Z,1.29
2023-02-06T03:23:03.049Z,1.13
2023-02-06T03:28:07.685Z,0.93
2023-02-06T03:33:10.944Z,0.85
2023-02-06T03:38:12.944Z,0.91
2023-02-06T03:43:18.875Z,0.76
2023-02-06T03:48:27.333Z,0.84
2023-02-06T03:53:29.253Z,1.07
2023-02-06T03:58:30.965Z,1.16
2023-02-06T04:03:32.316Z,1.20
2023-02-06T04:08:33.659Z,1.18
2023-02-06T04:13:35.073Z,1.07
2023-02-06T04:18:36.389Z,0.97
2023-02-06T04:23:37.890Z,0.90
2023-02-06T04:28:39.197Z,1.02
2023-02-06T04:33:40.506Z,1.13
2023-02-06T04:38:41.809Z,1.11
2023-02-06T04:43:43.147Z,1.10
2023-02-06T04:48:44.518Z,0.98
2023-02-06T04:53:45.855Z,0.90
2023-02-06T04:58:47.429Z,0.96
2023-02-06T05:03:48.735Z,0.92
2023-02-06T05:08:50.058Z,1.00
2023-02-06T05:13:51.373Z,1.04
2023-02-06T05:18:53.671Z,1.14
2023-02-06T05:23:54.998Z,1.21
2023-02-06T05:28:56.375Z,1.12
2023-02-06T05:33:57.824Z,1.08
2023-02-06T05:38:59.158Z,1.15
2023-02-06T05:44:00.518Z,1.09
2023-02-06T05:49:01.846Z,1.11
2023-02-06T05:54:03.253Z,1.10
2023-02-06T05:59:04.725Z,1.09
2023-02-06T06:04:06.657Z,1.08
2023-02-06T06:09:08.073Z,0.93
2023-02-06T06:14:10.407Z,0.96
2023-02-06T06:19:11.712Z,0.93
2023-02-06T06:24:13.031Z,0.85
2023-02-06T06:29:14.342Z,0.83
2023-02-06T06:34:15.828Z,0.85
2023-02-06T06:39:17.131Z,0.79
2023-02-06T06:44:18.533Z,0.66
2023-02-06T06:49:19.836Z,0.89
2023-02-06T06:54:22.513Z,0.89
2023-02-06T06:59:23.933Z,0.98
2023-02-06T07:04:29.426Z,0.91
2023-02-06T07:09:30.967Z,0.93
2023-02-06T07:14:32.308Z,1.21
2023-02-06T07:19:33.623Z,1.12
2023-02-06T07:24:35.003Z,1.04
2023-02-06T07:29:36.422Z,1.16
2023-02-06T07:34:37.842Z,1.24
2023-02-06T07:39:39.158Z,1.39
2023-02-06T07:44:40.468Z,1.30
2023-02-06T07:49:41.791Z,1.46
2023-02-06T07:54:43.109Z,1.39
2023-02-06T07:59:44.517Z,1.56
2023-02-06T08:04:45.955Z,1.51
2023-02-06T08:09:47.423Z,1.69
2023-02-06T08:14:48.889Z,1.77
2023-02-06T08:19:50.200Z,1.81
2023-02-06T08:24:51.562Z,2.13
2023-02-06T08:29:53.263Z,2.24
2023-02-06T08:34:54.569Z,2.30
2023-02-06T08:39:55.875Z,2.13
2023-02-06T08:44:57.216Z,2.39
2023-02-06T08:49:58.616Z,2.52
2023-02-06T08:54:59.925Z,2.44
2023-02-06T09:00:01.290Z,2.67
2023-02-06T09:05:02.651Z,2.88
2023-02-06T09:10:04.001Z,3.15
2023-02-06T09:15:05.558Z,3.24
2023-02-06T09:20:07.358Z,3.17
2023-02-06T09:25:08.673Z,3.33
2023-02-06T09:30:10.369Z,3.91
2023-02-06T09:35:11.710Z,3.92
2023-02-06T09:40:21.471Z,4.26
2023-02-06T09:45:25.444Z,5.82
2023-02-06T09:50:30.715Z,5.51
2023-02-06T09:55:46.312Z,4.76
2023-02-06T10:00:50.706Z,4.45
2023-02-06T10:06:07.226Z,4.33
2023-02-06T10:11:28.261Z,6.33
2023-02-06T10:16:32.553Z,7.55
2023-02-06T10:21:37.481Z,6.36
2023-02-06T10:26:39.837Z,6.81
2023-02-06T10:31:55.368Z,5.00
2023-02-06T10:37:14.862Z,4.44
2023-02-06T10:42:34.759Z,4.48
2023-02-06T10:47:45.180Z,6.71
2023-02-06T10:52:46.781Z,7.80
2023-02-06T10:57:50.953Z,6.65
2023-02-06T11:03:07.230Z,4.74
2023-02-06T11:08:41.758Z,6.36
2023-02-06T11:13:44.145Z,6.41
2023-02-06T11:18:46.372Z,7.52
2023-02-06T11:24:07.283Z,5.68
2023-02-06T11:29:13.421Z,6.12
2023-02-06T11:34:38.008Z,7.90
2023-02-06T11:39:39.456Z,6.42
2023-02-06T11:44:42.457Z,7.33
2023-02-06T11:49:43.760Z,6.72
2023-02-06T11:54:53.359Z,6.83
2023-02-06T11:59:56.117Z,9.29
2023-02-06T12:05:01.438Z,9.07
2023-02-06T12:10:04.015Z,10.47
2023-02-06T12:15:36.184Z,10.15
2023-02-06T12:20:35.075Z,10.51
2023-02-06T12:25:44.135Z,10.45
2023-02-06T12:30:48.356Z,7.80
2023-02-06T12:35:53.625Z,7.53
2023-02-06T12:41:10.686Z,9.79
2023-02-06T12:46:38.401Z,11.22
2023-02-06T12:51:53.181Z,11.26
2023-02-06T12:57:13.034Z,9.47
2023-02-06T13:02:33.313Z,9.04
2023-02-06T13:07:48.967Z,9.78
2023-02-06T13:12:55.192Z,8.67
2023-02-06T13:17:56.935Z,7.64
2023-02-06T13:23:21.363Z,8.12
2023-02-06T13:28:22.802Z,7.89
2023-02-06T13:33:24.869Z,7.55
2023-02-06T13:38:28.469Z,7.77
2023-02-06T13:43:31.775Z,7.38
2023-02-06T13:48:43.525Z,7.77
2023-02-06T13:53:54.892Z,7.72
2023-02-06T13:59:00.474Z,7.31
2023-02-06T14:04:06.751Z,8.26
2023-02-06T14:09:30.490Z,7.68
2023-02-06T14:14:43.731Z,8.15
2023-02-06T14:19:52.026Z,7.73
2023-02-06T14:25:09.548Z,7.89
2023-02-06T14:30:13.869Z,7.61
2023-02-06T14:35:15.184Z,7.83
2023-02-06T14:40:16.496Z,7.18
2023-02-06T14:45:25.201Z,6.98
2023-02-06T14:50:30.942Z,6.96
2023-02-06T14:55:35.091Z,6.58
2023-02-06T15:00:36.672Z,6.42
2023-02-06T15:05:38.299Z,6.07
2023-02-06T15:10:39.784Z,6.09
2023-02-06T15:15:51.527Z,5.86
2023-02-06T15:20:54.340Z,5.59
2023-02-06T15:26:05.511Z,5.48
2023-02-06T15:31:15.255Z,5.26
2023-02-06T15:36:43.047Z,5.28
2023-02-06T15:41:45.946Z,5.08
2023-02-06T15:46:49.294Z,5.01
2023-02-06T15:51:52.102Z,4.85
2023-02-06T15:57:04.667Z,4.91
2023-02-06T16:02:06.882Z,4.59
2023-02-06T16:07:14.252Z,4.51
2023-02-06T16:12:16.546Z,4.55
2023-02-06T16:17:17.860Z,4.44
2023-02-06T16:22:27.421Z,4.39
2023-02-06T16:27:28.837Z,4.34
2023-02-06T16:32:31.627Z,4.31
2023-02-06T16:37:33.129Z,4.39
2023-02-06T16:42:36.412Z,4.23
2023-02-06T16:47:37.857Z,4.12
2023-02-06T16:52:40.472Z,3.97
2023-02-06T16:57:43.303Z,3.84
2023-02-06T17:02:45.355Z,3.71
2023-02-06T17:07:48.989Z,3.48
2023-02-06T17:12:50.404Z,3.47
2023-02-06T17:17:53.765Z,3.26
2023-02-06T17:22:56.082Z,3.05
2023-02-06T17:27:58.091Z,2.84
2023-02-06T17:32:59.530Z,2.67
2023-02-06T17:38:00.942Z,2.58
2023-02-06T17:43:04.492Z,2.48
2023-02-06T17:48:06.306Z,2.38
2023-02-06T17:53:10.274Z,2.16
2023-02-06T17:58:11.603Z,2.11
2023-02-06T18:03:17.014Z,2.50
2023-02-06T18:08:19.280Z,2.49
2023-02-06T18:13:21.203Z,2.39
2023-02-06T18:18:23.277Z,2.28
2023-02-06T18:23:25.144Z,2.18
2023-02-06T18:28:26.504Z,1.96
2023-02-06T18:33:29.036Z,1.75
2023-02-06T18:38:30.346Z,1.55
2023-02-06T18:43:32.113Z,1.37
2023-02-06T18:48:33.560Z,1.23
2023-02-06T18:53:34.868Z,1.24
2023-02-06T18:58:36.289Z,1.20
2023-02-06T19:03:37.648Z,1.07
2023-02-06T19:08:40.760Z,0.89
2023-02-06T19:13:44.204Z,0.72
2023-02-06T19:18:46.839Z,0.53
2023-02-06T19:23:53.057Z,0.39
2023-02-06T19:28:55.051Z,0.27
2023-02-06T19:33:58.737Z,0.01
2023-02-06T19:39:01.112Z,-0.02
2023-02-06T19:44:07.291Z,-0.11
2023-02-06T19:49:10.764Z,-0.14
2023-02-06T19:54:12.152Z,-0.25
2023-02-06T19:59:19.390Z,-0.37
2023-02-06T20:04:21.864Z,-0.27
2023-02-06T20:09:24.501Z,-0.36
2023-02-06T20:14:26.049Z,-0.51
2023-02-06T20:19:28.310Z,-0.72
2023-02-06T20:24:30.581Z,-0.69
2023-02-06T20:29:33.980Z,-0.72
2023-02-06T20:34:35.484Z,-0.81
2023-02-06T20:39:36.876Z,-0.90
2023-02-06T20:44:38.205Z,-0.93
2023-02-06T20:49:39.849Z,-0.97
2023-02-06T20:54:41.452Z,-1.04
2023-02-06T20:59:42.979Z,-1.12
2023-02-06T21:04:44.325Z,-1.16
2023-02-06T21:09:45.751Z,-1.25
2023-02-06T21:14:47.078Z,-1.31
2023-02-06T21:19:48.414Z,-1.41
2023-02-06T21:24:49.820Z,-1.44
2023-02-06T21:29:51.132Z,-1.56
2023-02-06T21:34:52.627Z,-1.53
2023-02-06T21:39:53.938Z,-1.56
2023-02-06T21:44:55.274Z,-1.65
2023-02-06T21:49:56.597Z,-1.61
2023-02-06T21:54:58.012Z,-1.70
2023-02-06T21:59:59.388Z,-1.69
2023-02-06T22:05:00.792Z,-1.78
2023-02-06T22:10:03.643Z,-1.75
2023-02-06T22:15:05.142Z,-1.71
2023-02-06T22:20:06.961Z,-1.74
2023-02-06T22:25:09.049Z,-1.90
2023-02-06T22:30:11.034Z,-1.87
2023-02-06T22:35:12.462Z,-1.85
2023-02-06T22:40:13.790Z,-1.79
2023-02-06T22:45:15.157Z,-1.82
2023-02-06T22:50:16.526Z,-1.96
2023-02-06T22:55:17.905Z,-2.02
2023-02-06T23:00:19.325Z,-2.15
2023-02-06T23:05:20.667Z,-2.17
2023-02-06T23:10:22.036Z,-2.29
2023-02-06T23:15:23.975Z,-2.31
2023-02-06T23:20:25.288Z,-2.39
2023-02-06T23:25:26.766Z,-2.38
2023-02-06T23:30:28.216Z,-2.48
2023-02-06T23:35:29.549Z,-2.34
2023-02-06T23:40:31.724Z,-2.09
2023-02-06T23:45:33.425Z,-1.94
2023-02-06T23:50:34.786Z,-1.74
2023-02-06T23:55:38.556Z,-1.63
